Latest Weather Observations for Wagga Wagga

IDN60801

Issued at 5:33 pm EDT Sunday 1 March 2015 (issued every 30 minutes, with the page automatically refreshed every 10 minutes)

About weather observations | Map of weather stations | Latest weather observations for NSW | Other Formats
Station Details ID: 072150 Name: WAGGA WAGGA AMO Lat: -35.16 Lon: 147.46 Height: 212.0 m
Data from the previous 72 hours. | See also: Recent months at Wagga Wagga
Date/Time
EDT
Temp
°C
App
Temp
°C
Dew
Point
Rel
Hum
%
Delta-T
°C
Wind Press
QNH
hPa
Press
MSL
hPa
Rain
since 9 am
mm
Dir
 
Spd
km/h
Gust
km/h
Spd
kts
Gust
kts
01/05:30pm 28.1 21.0 1.2 17 13.1 SSW 28 37 15 20 1009.0 1008.3 0.4
01/05:00pm 29.1 22.2 0.3 15 13.9 SW 26 35 14 19 1008.7 1008.0 0.4
01/04:30pm 29.1 21.6 1.1 16 13.7 SW 30 43 16 23 1008.6 1007.9 0.4
01/04:00pm 28.9 21.8 1.1 16 13.6 WSW 28 39 15 21 1008.7 1008.0 0.4
01/03:31pm 28.9 22.5 5.3 22 12.4 WSW 28 48 15 26 1008.7 1008.0 0.4
01/03:30pm 28.9 22.6 5.6 23 12.3 WSW 28 37 15 20 1008.8 1008.1 0.4
01/03:00pm 28.0 21.9 8.1 28 10.9 SW 30 43 16 23 1009.0 1008.3 0.4
01/02:30pm 27.5 22.2 9.7 32 10.0 WSW 28 37 15 20 1009.3 1008.5 0.4
01/02:00pm 26.0 22.9 14.4 48 7.0 WSW 24 35 13 19 1009.6 1008.8 0.4
01/01:30pm 23.2 21.6 16.6 66 4.1 SW 20 32 11 17 1009.8 1009.0 0.4
01/01:00pm 23.3 21.0 17.7 71 3.5 SW 26 35 14 19 1009.7 1008.9 0.4
01/12:46pm 22.4 21.0 18.8 80 2.3 WSW 24 39 13 21 1009.9 1009.1 0.4
01/12:30pm 24.4 18.7 11.9 45 7.2 WSW 33 44 18 24 1009.8 1009.0 0.2
01/12:29pm 24.5 18.8 11.8 45 7.3 WSW 33 44 18 24 1010.1 1009.3 0.2
01/12:00pm 26.0 22.1 15.4 52 6.5 WSW 30 39 16 21 1009.1 1008.4 0.2
01/11:30am 25.5 22.0 15.5 54 6.1 WSW 28 35 15 19 1008.8 1008.1 0.2
01/11:00am 25.4 21.2 15.6 54 6.0 SW 32 41 17 22 1008.6 1007.9 0.0
01/10:30am 25.1 20.8 15.4 55 5.9 SW 32 39 17 21 1008.4 1007.4 0.0
01/10:00am 23.6 20.8 17.4 68 3.9 WSW 28 33 15 18 1008.0 1007.0 0.0
01/09:30am 25.7 21.5 14.6 50 6.7 WSW 30 39 16 21 1007.6 1006.6 0.0
01/09:00am 24.9 21.6 14.0 50 6.5 W 24 32 13 17 1006.9 1005.9 0.0
01/08:56am 24.7 22.2 14.0 51 6.4 W 20 30 11 16 1006.8 1005.8 0.0
01/08:30am 23.2 22.9 13.3 53 5.8 W 7 11 4 6 1006.5 1005.5 0.0
01/08:00am 20.7 19.9 13.9 65 4.0 WNW 11 17 6 9 1006.3 1005.3 0.0
01/07:30am 21.7 21.3 11.0 50 6.0 ENE 4 9 2 5 1005.5 1004.4 0.0
01/07:00am 21.8 20.1 8.3 42 7.2 NE 7 11 4 6 1005.2 1004.1 0.0
01/06:30am 22.9 21.6 7.6 37 8.1 E 4 11 2 6 1004.8 1003.7 0.0
01/05:30am 22.7 21.8 7.8 38 7.9 E 2 7 1 4 1004.9 1003.8 0.0
01/05:00am 22.3 20.8 8.3 40 7.5 E 6 9 3 5 1004.4 1003.3 0.0
01/04:30am 22.9 21.0 7.6 37 8.1 ENE 7 11 4 6 1003.7 1002.7 0.0
01/04:00am 24.6 22.5 5.9 30 9.7 N 6 7 3 4 1003.7 1002.7 0.0
01/03:30am 24.0 18.9 5.8 31 9.4 WSW 22 33 12 18 1004.3 1003.2 0.0
01/03:00am 22.7 20.9 8.1 39 7.8 SE 7 9 4 5 1003.2 1002.2 0.0
01/02:30am 21.5 20.0 9.1 45 6.7 S 7 9 4 5 1003.4 1002.4 0.0
01/02:00am 20.9 18.9 8.7 45 6.5 S 9 11 5 6 1003.5 1002.5 0.0
01/01:30am 20.2 18.3 7.5 43 6.6 S 7 9 4 5 1003.7 1002.7 0.0
01/01:00am 19.5 19.0 7.8 46 6.1 CALM 0 0 0 0 1004.3 1003.2 0.0
01/12:30am 21.9 20.9 7.2 38 7.7 NE 2 9 1 5 1004.0 1003.0 0.0
01/12:00am 22.4 21.8 7.6 38 7.8 CALM 0 0 0 0 1004.6 1003.5 0.0
 
Date/Time
EDT
Temp
°C
App
Temp
°C
Dew
Point
Rel
Hum
%
Delta-T
°C
Wind Press
QNH
hPa
Press
MSL
hPa
Rain
since 9 am
mm
Dir
 
Spd
km/h
Gust
km/h
Spd
kts
Gust
kts
28/11:30pm 23.3 21.6 8.2 38 8.1 NE 7 7 4 4 1004.7 1003.6 0.0
28/11:00pm 22.9 22.3 7.3 36 8.2 CALM 0 2 0 1 1005.0 1003.9 0.0
28/10:30pm 25.2 23.3 7.4 32 9.5 ENE 7 7 4 4 1005.2 1004.1 0.0
28/10:00pm 25.6 23.3 5.8 28 10.3 W 7 9 4 5 1005.3 1004.2 0.0
28/09:30pm 26.3 25.5 6.7 28 10.4 CALM 0 0 0 0 1005.2 1004.1 0.0
28/09:00pm 28.0 27.1 6.2 25 11.6 CALM 0 0 0 0 1005.0 1003.9 0.0
28/08:30pm 28.1 26.4 1.7 18 12.9 CALM 0 0 0 0 1005.0 1003.9 0.0
28/08:00pm 29.4 27.0 4.4 20 13.0 W 6 7 3 4 1004.7 1003.6 0.0
28/07:30pm 32.1 28.4 -0.2 12 15.7 W 9 11 5 6 1004.5 1003.4 0.0
28/07:00pm 33.9 28.8 -4.9 8 17.8 WNW 13 19 7 10 1004.3 1003.2 0.0
28/06:30pm 34.3 28.7 -3.0 9 17.6 WNW 17 24 9 13 1004.1 1003.1 0.0
28/05:30pm 34.6 28.6 0.8 12 17.0 NW 22 33 12 18 1004.1 1003.1 0.0
28/05:00pm 35.1 29.8 1.6 12 17.2 WNW 19 28 10 15 1004.1 1003.1 0.0
28/04:30pm 35.0 31.2 1.8 12 17.0 WNW 11 22 6 12 1004.4 1003.3 0.0
28/04:00pm 34.6 30.5 6.0 17 15.7 NW 17 32 9 17 1004.8 1003.7 0.0
28/03:30pm 34.6 29.7 5.3 16 15.9 WNW 20 32 11 17 1005.2 1004.1 0.0
28/03:00pm 34.7 29.1 5.2 16 16.0 NW 24 39 13 21 1005.5 1004.4 0.0
28/02:30pm 34.4 29.9 6.9 18 15.2 NW 20 33 11 18 1006.0 1004.9 0.0
28/02:00pm 33.0 28.6 7.5 20 14.2 WNW 20 32 11 17 1006.5 1005.5 0.0
28/01:30pm 33.3 28.8 6.9 19 14.6 NW 20 32 11 17 1006.9 1005.9 0.0
28/01:00pm 32.9 28.3 8.2 21 13.9 NNW 22 30 12 16 1007.3 1006.3 0.0
28/12:30pm 32.3 27.6 7.7 21 13.7 NNW 22 30 12 16 1007.9 1006.9 0.0
28/12:00pm 31.1 27.4 10.3 27 12.0 N 20 30 11 16 1008.3 1007.3 0.0
28/11:30am 30.0 26.7 11.6 32 10.8 N 20 28 11 15 1008.6 1007.6 0.0
28/11:00am 28.9 25.9 11.8 34 10.0 NNW 19 30 10 16 1008.9 1007.9 0.0
28/10:30am 27.5 24.4 12.1 38 9.0 N 20 32 11 17 1009.4 1008.3 0.0
28/10:00am 27.0 25.6 13.4 43 8.1 ENE 13 17 7 9 1009.4 1008.3 0.0
28/09:30am 25.0 22.7 12.9 47 7.1 NE 17 22 9 12 1009.4 1008.3 0.0
28/09:00am 23.7 21.8 13.1 51 6.2 ENE 15 22 8 12 1008.9 1007.9 0.0
28/08:30am 21.7 20.3 12.2 54 5.4 E 11 13 6 7 1008.8 1007.8 0.0
28/08:00am 21.0 19.0 11.4 54 5.4 E 13 15 7 8 1008.7 1007.7 0.0
28/07:30am 20.9 18.7 10.8 52 5.6 ESE 13 17 7 9 1008.5 1007.5 0.0
28/07:00am 20.8 18.5 10.4 51 5.7 ENE 13 17 7 9 1008.2 1007.2 0.0
28/06:30am 20.4 18.6 11.0 54 5.2 ENE 11 13 6 7 1007.9 1006.9 0.0
28/06:00am 20.3 18.6 11.3 56 5.0 ENE 11 13 6 7 1008.0 1007.0 0.0
28/05:30am 20.7 19.4 11.2 54 5.3 E 9 11 5 6 1007.7 1006.7 0.0
28/05:00am 20.4 19.5 11.5 56 5.0 E 7 9 4 5 1007.7 1006.7 0.0
28/04:30am 20.7 19.8 11.2 54 5.3 E 7 9 4 5 1007.8 1006.8 0.0
28/04:00am 20.8 18.6 10.9 53 5.5 ESE 13 17 7 9 1007.8 1006.8 0.0
28/03:30am 19.9 18.8 12.1 60 4.4 E 9 11 5 6 1007.6 1006.6 0.0
28/03:00am 19.7 18.2 11.9 60 4.4 ENE 11 11 6 6 1007.8 1006.8 0.0
28/02:30am 20.3 20.9 12.0 59 4.7 CALM 0 9 0 5 1008.0 1007.0 0.0
28/02:00am 19.1 18.5 12.2 64 3.9 SW 7 11 4 6 1008.1 1007.1 0.0
28/01:30am 19.6 20.2 11.9 61 4.3 CALM 0 0 0 0 1008.2 1007.2 0.0
28/01:00am 21.4 22.0 11.9 54 5.4 CALM 0 0 0 0 1008.2 1007.2 0.0
28/12:30am 21.6 22.1 11.5 52 5.7 CALM 0 0 0 0 1008.3 1007.3 0.0
28/12:00am 20.9 20.9 12.3 58 4.9 E 4 7 2 4 1008.3 1007.3 0.0
 
Date/Time
EDT
Temp
°C
App
Temp
°C
Dew
Point
Rel
Hum
%
Delta-T
°C
Wind Press
QNH
hPa
Press
MSL
hPa
Rain
since 9 am
mm
Dir
 
Spd
km/h
Gust
km/h
Spd
kts
Gust
kts
27/11:30pm 22.3 22.7 11.3 49 6.2 CALM 0 0 0 0 1008.4 1007.4 0.0
27/11:00pm 23.3 23.4 11.5 47 6.7 E 2 7 1 4 1008.3 1007.3 0.0
27/10:30pm 23.9 22.4 10.7 43 7.4 E 9 13 5 7 1008.3 1007.3 0.0
27/10:00pm 23.8 22.5 11.3 45 7.1 SSE 9 15 5 8 1008.2 1007.2 0.0
27/09:30pm 24.1 21.5 10.8 43 7.5 S 15 19 8 10 1007.8 1006.8 0.0
27/09:00pm 25.2 21.9 9.7 37 8.6 S 17 19 9 10 1007.6 1006.6 0.0
27/08:30pm 25.4 22.7 8.8 35 9.1 S 13 15 7 8 1007.4 1006.4 0.0
27/08:00pm 27.6 25.4 7.8 28 10.8 S 9 11 5 6 1006.9 1005.9 0.0
27/07:30pm 29.3 26.7 7.9 26 11.8 S 11 15 6 8 1006.7 1005.7 0.0
27/07:00pm 30.7 29.6 6.9 22 13.0 WSW 2 11 1 6 1006.4 1005.4 0.0
27/06:30pm 31.3 28.0 6.5 21 13.4 WSW 13 19 7 10 1006.3 1005.3 0.0
27/06:00pm 31.8 28.9 6.5 20 13.8 SW 11 20 6 11 1006.1 1005.1 0.0
27/05:30pm 31.7 29.2 6.6 21 13.7 WSW 9 17 5 9 1006.3 1005.3 0.0
27/05:00pm 32.1 29.1 6.1 19 14.1 W 11 15 6 8 1006.4 1005.4 0.0
27/04:30pm 31.7 28.3 6.0 20 13.9 WNW 13 33 7 18 1006.6 1005.6 0.0
27/04:00pm 31.5 28.6 6.5 21 13.6 N 11 17 6 9 1006.9 1005.9 0.0
27/03:30pm 31.5 28.6 8.0 23 13.1 WNW 13 19 7 10 1007.3 1006.3 0.0
27/03:00pm 31.4 28.7 7.2 22 13.3 NW 11 20 6 11 1007.7 1006.7 0.0
27/02:30pm 31.3 29.2 8.2 23 12.9 NE 9 15 5 8 1008.1 1007.1 0.0
27/02:00pm 30.1 27.1 7.5 24 12.4 SW 13 19 7 10 1008.5 1007.5 0.0
27/01:30pm 29.8 28.3 8.4 26 11.9 NE 6 13 3 7 1008.9 1007.9 0.0
27/01:00pm 29.9 28.2 8.3 26 12.0 NW 7 13 4 7 1009.1 1008.1 0.0
27/12:30pm 27.8 26.5 11.1 35 9.6 WNW 9 13 5 7 1009.9 1008.8 0.0
27/12:00pm 28.3 27.7 12.3 37 9.4 E 7 13 4 7 1010.1 1009.0 0.0
27/11:30am 27.1 26.9 13.5 43 8.1 NNE 7 17 4 9 1010.5 1009.5 0.0
27/11:00am 26.2 25.7 13.8 46 7.4 NNE 9 13 5 7 1010.8 1009.8 0.0
27/10:30am 25.0 23.7 13.7 49 6.7 NE 13 20 7 11 1010.7 1009.7 0.0
27/10:00am 23.9 22.2 13.5 52 6.1 NE 15 20 8 11 1010.4 1009.4 0.0
27/09:30am 23.0 21.8 14.0 57 5.3 ENE 13 19 7 10 1010.6 1009.6 0.0
27/09:00am 21.6 20.8 14.1 62 4.4 ENE 11 15 6 8 1010.5 1009.5 0.0
27/08:30am 20.7 20.7 14.2 66 3.8 ENE 7 11 4 6 1010.2 1009.1 0.0
27/08:00am 19.4 20.8 14.5 73 2.9 CALM 0 0 0 0 1009.9 1008.8 0.0
27/07:30am 17.2 17.2 13.5 79 2.1 E 6 9 3 5 1009.6 1008.5 0.0
27/07:00am 15.2 15.8 13.1 87 1.2 SE 2 7 1 4 1009.4 1008.3 0.0
27/06:30am 15.9 15.5 13.1 83 1.6 E 7 9 4 5 1008.8 1007.8 0.0
27/06:00am 16.2 15.6 13.4 83 1.6 E 9 11 5 6 1008.5 1007.5 0.0
27/05:30am 18.8 17.9 13.8 72 2.9 ESE 11 13 6 7 1008.5 1007.5 0.0
27/05:00am 18.5 17.6 13.8 74 2.7 E 11 13 6 7 1008.5 1007.5 0.0
27/04:30am 17.3 16.7 13.4 78 2.2 SE 9 9 5 5 1008.6 1007.6 0.0
27/04:00am 19.8 19.2 13.6 67 3.6 E 9 11 5 6 1008.6 1007.6 0.0
27/03:30am 20.4 20.0 13.1 63 4.2 E 7 7 4 4 1008.7 1007.7 0.0
27/03:00am 20.8 21.7 12.8 60 4.6 CALM 0 0 0 0 1008.9 1007.9 0.0
27/02:30am 20.3 20.9 13.0 63 4.2 S 2 7 1 4 1008.9 1007.9 0.0
27/02:00am 21.5 19.4 12.4 56 5.2 ENE 15 19 8 10 1008.9 1007.9 0.0
27/01:30am 21.4 19.8 12.7 57 5.0 E 13 17 7 9 1009.0 1008.0 0.0
27/01:00am 21.4 20.1 12.5 57 5.1 E 11 15 6 8 1008.9 1007.9 0.0
27/12:30am 20.1 18.6 13.1 64 4.0 E 13 17 7 9 1008.9 1007.9 0.0
27/12:00am 19.8 20.9 13.6 67 3.6 CALM 0 0 0 0 1008.7 1007.7 0.0
 
Date/Time
EDT
Temp
°C
App
Temp
°C
Dew
Point
Rel
Hum
%
Delta-T
°C
Wind Press
QNH
hPa
Press
MSL
hPa
Rain
since 9 am
mm
Dir
 
Spd
km/h
Gust
km/h
Spd
kts
Gust
kts
26/11:30pm 20.3 21.5 13.8 66 3.8 CALM 0 0 0 0 1008.8 1007.8 0.0
26/11:00pm 20.4 19.7 13.3 63 4.1 S 9 11 5 6 1008.8 1007.8 0.0
26/10:30pm 21.5 20.1 13.4 60 4.7 S 13 13 7 7 1008.9 1007.9 0.0
26/10:00pm 22.5 20.8 12.6 53 5.7 S 13 15 7 8 1008.6 1007.6 0.0
26/09:30pm 22.9 21.5 12.3 51 6.1 SSE 11 11 6 6 1008.3 1007.3 0.0
26/09:00pm 23.3 21.3 11.5 47 6.7 SSW 13 15 7 8 1007.8 1006.8 0.0
26/08:30pm 23.8 20.8 10.8 44 7.3 SSW 17 19 9 10 1007.4 1006.4 0.0
26/08:00pm 25.1 22.8 10.3 39 8.3 SSW 13 15 7 8 1007.0 1006.0 0.0
26/07:30pm 27.2 24.1 8.7 31 10.2 SSW 15 19 8 10 1006.6 1005.6 0.0
26/07:00pm 28.1 24.3 7.5 27 11.2 S 17 22 9 12 1006.4 1005.4 0.0
26/06:30pm 28.7 24.3 7.4 26 11.6 S 20 28 11 15 1006.2 1005.2 0.0
26/06:00pm 29.2 25.8 9.3 29 11.2 SSW 17 26 9 14 1006.1 1005.1 0.0

Other Formats:

Comma delimited format used in spreadsheet applications
http://www.bom.gov.au/fwo/IDN60801/IDN60801.94910.axf

JavaScript Object Notation format (JSON) in row-major order
http://www.bom.gov.au/fwo/IDN60801/IDN60801.94910.json